Time;durP1;ratioP1;P1;durP2;ratioP2;P2;SDS_P1;SDS_P2;PMS_P1;PMS_P2;Temp;Humidity;BMP_temperature;BMP_pressure;BME280_temperature;BME280_humidity;BME280_pressure;Samples;Min_cycle;Max_cycle;Signal;HPM_P1;HPM_P2
2022/10/02 00:02:25;;;;;;;7.70;2.58;;;13.50;99.90;;;;;;4948347;29;20123;-81
2022/10/02 00:05:01;;;;;;;3.35;2.17;;;13.60;99.90;;;;;;4930709;29;20055;-81
2022/10/02 00:07:43;;;;;;;6.68;2.22;;;13.60;99.90;;;;;;4927283;29;20476;-80
2022/10/02 00:10:36;;;;;;;6.20;2.42;;;13.60;99.90;;;;;;4946262;29;20063;-81
2022/10/02 00:13:30;;;;;;;8.27;2.30;;;13.60;99.90;;;;;;4920643;29;20056;-81
2022/10/02 00:15:57;;;;;;;2.30;1.90;;;13.70;99.90;;;;;;4931828;29;20055;-82
2022/10/02 00:18:33;;;;;;;7.57;2.07;;;13.70;99.90;;;;;;4938796;29;20520;-81
2022/10/02 00:21:41;;;;;;;5.07;2.20;;;13.80;99.90;;;;;;4949073;29;20055;-82
2022/10/02 00:25:07;;;;;;;4.28;1.90;;;13.70;99.90;;;;;;4917817;29;20048;-82
2022/10/02 00:27:48;;;;;;;4.68;2.13;;;13.80;99.90;;;;;;4874596;29;20200;-82
2022/10/02 00:30:23;;;;;;;4.00;2.13;;;13.80;99.90;;;;;;4882278;29;20060;-82
2022/10/02 00:33:16;;;;;;;2.55;1.80;;;13.80;99.90;;;;;;4940512;29;20088;-82
2022/10/02 00:35:58;;;;;;;2.63;2.03;;;13.80;99.90;;;;;;4936901;29;20052;-82
2022/10/02 00:38:51;;;;;;;6.70;1.83;;;13.80;99.90;;;;;;4940920;29;20106;-81
2022/10/02 00:41:45;;;;;;;6.20;1.80;;;13.80;99.90;;;;;;4940953;29;20574;-81
2022/10/02 00:44:36;;;;;;;3.42;1.67;;;13.90;99.90;;;;;;4942199;29;20138;-81
2022/10/02 00:47:11;;;;;;;3.15;1.67;;;13.90;99.90;;;;;;4925424;29;20051;-81
2022/10/02 00:49:50;;;;;;;2.22;1.80;;;13.90;99.90;;;;;;4941852;29;20047;-80
2022/10/02 00:52:20;;;;;;;3.35;1.55;;;13.90;99.90;;;;;;4942288;29;20051;-81
2022/10/02 00:55:07;;;;;;;8.10;1.50;;;14.00;99.90;;;;;;4940889;29;20060;-80
2022/10/02 00:58:15;;;;;;;2.97;1.35;;;14.00;99.90;;;;;;4942925;29;20062;-81
2022/10/02 01:00:54;;;;;;;3.03;1.42;;;14.00;99.90;;;;;;4934130;29;20052;-81
2022/10/02 01:03:29;;;;;;;2.08;1.48;;;14.00;99.90;;;;;;4943485;29;20055;-81
2022/10/02 01:05:56;;;;;;;2.17;1.42;;;14.10;99.90;;;;;;4924167;29;20054;-81
2022/10/02 01:08:22;;;;;;;2.63;1.30;;;14.10;99.90;;;;;;4944462;29;20054;-81
2022/10/02 01:10:49;;;;;;;4.90;1.35;;;14.10;99.90;;;;;;4944239;29;20052;-81
2022/10/02 01:13:16;;;;;;;4.50;1.10;;;14.10;99.90;;;;;;4944739;29;20054;-82
2022/10/02 01:15:51;;;;;;;8.32;1.92;;;14.10;99.90;;;;;;4944524;29;20134;-82
2022/10/02 01:18:18;;;;;;;6.32;1.60;;;14.10;99.90;;;;;;4928762;29;20054;-82
2022/10/02 01:20:51;;;;;;;3.97;1.30;;;14.10;99.90;;;;;;4944564;29;20040;-82
2022/10/02 01:23:39;;;;;;;4.70;1.10;;;14.20;99.90;;;;;;4945448;29;20076;-81
2022/10/02 01:26:06;;;;;;;3.55;1.65;;;14.20;99.90;;;;;;4929188;29;20058;-82
2022/10/02 01:28:33;;;;;;;3.53;1.48;;;14.20;99.90;;;;;;4946016;29;20066;-82
2022/10/02 01:31:06;;;;;;;4.47;1.63;;;14.20;99.90;;;;;;4944606;29;20052;-81
2022/10/02 01:33:34;;;;;;;3.72;1.60;;;14.20;99.90;;;;;;4943645;29;20075;-82
2022/10/02 01:36:01;;;;;;;4.07;1.23;;;14.30;99.90;;;;;;4922840;29;20056;-82
2022/10/02 01:38:28;;;;;;;3.17;1.35;;;14.30;99.90;;;;;;4943585;29;20059;-83
2022/10/02 01:40:55;;;;;;;3.47;1.30;;;14.30;99.90;;;;;;4925501;29;20079;-82
2022/10/02 01:43:30;;;;;;;2.15;1.20;;;14.30;99.90;;;;;;4928394;29;20052;-82
2022/10/02 01:46:22;;;;;;;9.82;1.45;;;14.30;99.90;;;;;;4945253;29;20394;-81
2022/10/02 01:49:09;;;;;;;3.70;1.02;;;14.30;99.90;;;;;;4945235;29;20056;-81
2022/10/02 01:51:55;;;;;;;5.72;1.50;;;14.30;99.90;;;;;;4946032;29;20048;-82
2022/10/02 01:54:46;;;;;;;4.60;1.38;;;14.40;99.90;;;;;;4945519;29;20062;-81
2022/10/02 01:57:48;;;;;;;3.75;1.13;;;14.40;99.90;;;;;;4943702;29;20398;-82
2022/10/02 02:00:24;;;;;;;6.15;1.38;;;14.40;99.90;;;;;;4915028;29;20497;-82
2022/10/02 02:03:27;;;;;;;3.97;1.20;;;14.40;99.90;;;;;;4942993;29;20217;-81
2022/10/02 02:06:05;;;;;;;4.25;1.20;;;14.40;99.90;;;;;;4945577;29;20060;-82
2022/10/02 02:08:49;;;;;;;3.78;1.40;;;14.50;99.90;;;;;;4946352;29;20062;-82
2022/10/02 02:11:18;;;;;;;2.35;1.20;;;14.50;99.90;;;;;;4945476;29;20051;-81
2022/10/02 02:13:51;;;;;;;3.75;1.35;;;14.50;99.90;;;;;;4927344;29;20056;-82
2022/10/02 02:16:20;;;;;;;2.80;1.40;;;14.50;99.90;;;;;;4928621;29;20052;-83
2022/10/02 02:19:03;;;;;;;4.65;1.77;;;14.50;99.90;;;;;;4928828;29;20054;-82
2022/10/02 02:21:38;;;;;;;3.05;1.20;;;14.50;99.90;;;;;;4946665;29;20055;-82
2022/10/02 02:24:10;;;;;;;2.42;1.15;;;14.50;99.90;;;;;;4945935;29;20059;-83
2022/10/02 02:26:42;;;;;;;3.67;1.38;;;14.60;99.90;;;;;;4934865;29;20058;-82
2022/10/02 02:29:12;;;;;;;5.55;1.23;;;14.50;99.90;;;;;;4929717;29;20052;-82
2022/10/02 02:31:52;;;;;;;1.50;1.20;;;14.50;99.90;;;;;;4946259;29;20053;-82
2022/10/02 02:34:41;;;;;;;3.35;1.30;;;14.60;99.90;;;;;;4945967;29;20052;-82
2022/10/02 02:37:15;;;;;;;3.45;1.20;;;14.60;99.90;;;;;;4944297;29;20055;-81
2022/10/02 02:39:48;;;;;;;3.33;1.10;;;14.50;99.90;;;;;;4946039;29;20054;-82
2022/10/02 02:42:20;;;;;;;1.88;1.17;;;14.60;99.90;;;;;;4929207;29;20055;-82
2022/10/02 02:44:51;;;;;;;3.20;1.00;;;14.60;99.90;;;;;;4945920;29;20079;-82
2022/10/02 02:47:26;;;;;;;1.58;0.75;;;14.60;99.90;;;;;;4945937;29;20051;-82
2022/10/02 02:50:04;;;;;;;1.90;1.00;;;14.60;99.90;;;;;;4926890;29;20052;-82
2022/10/02 02:52:43;;;;;;;2.70;1.00;;;14.60;99.90;;;;;;4940519;29;20052;-81
2022/10/02 02:55:20;;;;;;;1.60;0.97;;;14.60;99.90;;;;;;4950886;29;20063;-81
2022/10/02 02:58:12;;;;;;;1.50;1.00;;;14.60;99.90;;;;;;4926234;29;20315;-82
2022/10/02 03:00:39;;;;;;;2.25;0.88;;;14.60;99.90;;;;;;4943069;29;20062;-82
2022/10/02 03:03:06;;;;;;;4.85;1.33;;;14.50;99.90;;;;;;4941704;29;20059;-81
2022/10/02 03:05:35;;;;;;;5.45;0.90;;;14.50;99.90;;;;;;4945551;29;20175;-81
2022/10/02 03:08:08;;;;;;;2.10;0.85;;;14.60;99.90;;;;;;4944070;29;20134;-81
2022/10/02 03:10:41;;;;;;;4.70;1.02;;;14.50;99.90;;;;;;4927946;29;20054;-82
2022/10/02 03:13:16;;;;;;;2.63;1.10;;;14.60;99.90;;;;;;4943230;29;20115;-81
2022/10/02 03:16:01;;;;;;;3.45;1.50;;;14.60;99.90;;;;;;4945962;29;20709;-81
2022/10/02 03:18:46;;;;;;;2.28;1.10;;;14.60;99.90;;;;;;4942487;29;20058;-81
2022/10/02 03:21:39;;;;;;;2.58;1.33;;;14.60;99.90;;;;;;4940047;29;20498;-82
2022/10/02 03:24:36;;;;;;;3.28;1.15;;;14.60;99.90;;;;;;4926695;29;20066;-81
2022/10/02 03:27:07;;;;;;;2.78;1.38;;;14.60;99.90;;;;;;4917510;29;20055;-81
2022/10/02 03:29:48;;;;;;;2.83;1.13;;;14.60;99.90;;;;;;4944825;29;20058;-81
2022/10/02 03:32:16;;;;;;;3.20;0.95;;;14.60;99.90;;;;;;4926229;29;20056;-81
2022/10/02 03:34:43;;;;;;;3.45;1.10;;;14.60;99.90;;;;;;4943415;29;20044;-81
2022/10/02 03:37:10;;;;;;;6.78;1.30;;;14.60;99.90;;;;;;4941769;29;20059;-81
2022/10/02 03:39:44;;;;;;;5.28;1.23;;;14.60;99.90;;;;;;4930568;29;20055;-81
2022/10/02 03:42:13;;;;;;;4.88;1.10;;;14.60;99.90;;;;;;4942106;29;20067;-82
2022/10/02 03:44:40;;;;;;;2.85;1.17;;;14.60;99.90;;;;;;4943107;29;20058;-83
2022/10/02 03:47:06;;;;;;;5.45;1.23;;;14.70;99.90;;;;;;4944024;29;20451;-81
2022/10/02 03:49:33;;;;;;;4.40;1.23;;;14.70;99.90;;;;;;4944142;29;20387;-81
2022/10/02 03:52:00;;;;;;;2.25;1.23;;;14.70;99.90;;;;;;4944702;29;20044;-82
2022/10/02 03:54:32;;;;;;;3.65;1.10;;;14.70;99.90;;;;;;4922895;29;20044;-81
2022/10/02 03:57:04;;;;;;;2.28;1.20;;;14.70;99.90;;;;;;4940332;29;20052;-82
2022/10/02 03:59:43;;;;;;;4.70;2.05;;;14.70;99.90;;;;;;4942680;29;20053;-81
2022/10/02 04:02:25;;;;;;;3.28;1.38;;;14.70;99.90;;;;;;4942382;29;20056;-81
2022/10/02 04:05:10;;;;;;;5.30;1.83;;;14.70;99.90;;;;;;4945642;29;20422;-82
2022/10/02 04:07:40;;;;;;;5.45;1.50;;;14.70;99.90;;;;;;4946663;29;20546;-81
2022/10/02 04:10:31;;;;;;;2.42;1.20;;;14.80;99.90;;;;;;4926978;29;20498;-81
2022/10/02 04:13:26;;;;;;;4.47;1.15;;;14.70;99.90;;;;;;4941677;29;20058;-81
2022/10/02 04:15:59;;;;;;;3.05;1.35;;;14.80;99.90;;;;;;4942476;29;20051;-82
2022/10/02 04:18:48;;;;;;;6.60;1.70;;;14.80;99.90;;;;;;4942896;29;20139;-80
2022/10/02 04:21:55;;;;;;;3.92;1.15;;;14.80;99.90;;;;;;4940042;29;20059;-81
2022/10/02 04:24:38;;;;;;;4.90;1.02;;;14.80;99.90;;;;;;4941841;29;20062;-81
2022/10/02 04:27:20;;;;;;;2.63;0.95;;;14.80;99.90;;;;;;4924259;29;20494;-81
2022/10/02 04:29:56;;;;;;;4.82;1.73;;;14.80;99.90;;;;;;4941150;29;20055;-81
2022/10/02 04:32:25;;;;;;;5.85;1.08;;;14.80;99.90;;;;;;4941658;29;20048;-81
2022/10/02 04:34:53;;;;;;;1.90;0.90;;;14.80;99.90;;;;;;4942440;29;20067;-82
2022/10/02 04:37:34;;;;;;;5.72;1.48;;;14.80;99.90;;;;;;4942856;29;20056;-81
2022/10/02 04:40:20;;;;;;;3.08;1.10;;;14.90;99.90;;;;;;4938164;29;20062;-81
2022/10/02 04:42:59;;;;;;;2.72;1.15;;;14.90;99.90;;;;;;4924258;29;20052;-82
2022/10/02 04:45:47;;;;;;;2.13;1.00;;;14.90;99.90;;;;;;4940000;29;20056;-81
2022/10/02 04:48:26;;;;;;;1.77;1.05;;;14.90;99.90;;;;;;4938625;29;20056;-82
2022/10/02 04:51:19;;;;;;;3.10;0.93;;;14.90;99.90;;;;;;4946106;29;20048;-81
2022/10/02 04:54:24;;;;;;;3.63;0.95;;;14.90;99.90;;;;;;4946345;29;20059;-81
2022/10/02 04:57:02;;;;;;;3.65;0.75;;;14.90;99.90;;;;;;4947597;29;20406;-81
2022/10/02 04:59:43;;;;;;;3.95;0.93;;;14.90;99.90;;;;;;4948404;29;20532;-82
2022/10/02 05:02:34;;;;;;;5.03;0.70;;;15.00;99.90;;;;;;4930815;29;20067;-82
2022/10/02 05:05:32;;;;;;;1.63;0.70;;;15.00;99.90;;;;;;4947856;29;20056;-82
2022/10/02 05:08:21;;;;;;;4.30;0.70;;;15.00;99.90;;;;;;4947418;29;20047;-81
2022/10/02 05:10:48;;;;;;;2.03;0.85;;;15.00;99.90;;;;;;4947984;29;20127;-82
2022/10/02 05:13:27;;;;;;;3.30;0.90;;;15.00;99.90;;;;;;4948594;29;20066;-81
2022/10/02 05:15:56;;;;;;;5.82;1.20;;;15.10;99.90;;;;;;4938014;29;20070;-81
2022/10/02 05:18:42;;;;;;;2.95;1.27;;;15.00;99.90;;;;;;4939287;29;20070;-81
2022/10/02 05:21:43;;;;;;;3.83;1.10;;;15.00;99.90;;;;;;4941820;29;20051;-82
2022/10/02 05:24:49;;;;;;;3.13;1.00;;;15.10;99.90;;;;;;4944493;29;20051;-82
2022/10/02 05:27:37;;;;;;;3.58;1.00;;;15.20;99.90;;;;;;4925954;29;20052;-82
2022/10/02 05:30:17;;;;;;;2.40;0.90;;;15.20;99.90;;;;;;4927146;29;20107;-82
2022/10/02 05:33:02;;;;;;;6.13;1.10;;;15.20;99.90;;;;;;4944069;29;20047;-81
2022/10/02 05:35:46;;;;;;;4.60;0.90;;;15.20;99.90;;;;;;4944440;29;20501;-81
2022/10/02 05:38:25;;;;;;;5.80;1.08;;;15.30;99.90;;;;;;4945226;29;20055;-83
2022/10/02 05:41:04;;;;;;;3.08;0.80;;;15.20;99.90;;;;;;4944653;29;20119;-81
2022/10/02 05:43:54;;;;;;;5.07;0.80;;;15.30;99.90;;;;;;4945457;29;20047;-82
2022/10/02 05:46:29;;;;;;;5.45;1.02;;;15.30;99.90;;;;;;4927403;29;20374;-82
2022/10/02 05:49:14;;;;;;;4.45;1.35;;;15.30;99.90;;;;;;4946368;29;20058;-81
2022/10/02 05:51:49;;;;;;;1.55;0.85;;;15.30;99.90;;;;;;4928654;29;20055;-81
2022/10/02 05:54:35;;;;;;;2.42;1.70;;;15.30;99.90;;;;;;4947806;29;20062;-82
2022/10/02 05:57:17;;;;;;;2.25;1.23;;;15.30;99.90;;;;;;4948369;29;20498;-81
2022/10/02 05:59:56;;;;;;;2.47;0.75;;;15.30;99.90;;;;;;4944344;29;20060;-82
2022/10/02 06:02:33;;;;;;;2.17;0.80;;;15.30;99.90;;;;;;4944522;29;20512;-81
2022/10/02 06:05:17;;;;;;;1.92;1.00;;;15.30;99.90;;;;;;4943796;29;20158;-81
2022/10/02 06:07:49;;;;;;;4.38;0.77;;;15.30;99.90;;;;;;4944923;29;20105;-82
2022/10/02 06:10:20;;;;;;;2.67;0.80;;;15.30;99.90;;;;;;4944884;29;20473;-82
2022/10/02 06:13:05;;;;;;;3.20;0.93;;;15.40;99.90;;;;;;4927248;29;20047;-82
2022/10/02 06:15:38;;;;;;;4.45;0.73;;;15.40;99.90;;;;;;4942242;29;20051;-83
2022/10/02 06:18:12;;;;;;;3.20;0.80;;;15.40;99.90;;;;;;4944552;29;20052;-81
2022/10/02 06:20:50;;;;;;;7.97;0.90;;;15.40;99.90;;;;;;4940791;29;20055;-81
2022/10/02 06:23:19;;;;;;;0.85;0.70;;;15.40;99.90;;;;;;4937814;29;20147;-81
2022/10/02 06:25:55;;;;;;;1.42;0.68;;;15.50;99.90;;;;;;4935466;29;20051;-81
2022/10/02 06:28:42;;;;;;;1.48;0.80;;;15.50;99.90;;;;;;4935986;29;20055;-81
2022/10/02 06:31:11;;;;;;;2.42;0.75;;;15.50;99.90;;;;;;4936130;29;20058;-81
2022/10/02 06:33:38;;;;;;;2.20;0.95;;;15.50;99.90;;;;;;4918616;29;20652;-81
2022/10/02 06:36:17;;;;;;;4.60;0.85;;;15.50;99.90;;;;;;4934916;29;20060;-81
2022/10/02 06:38:55;;;;;;;4.20;0.90;;;15.60;99.90;;;;;;4935426;29;20056;-81
2022/10/02 06:41:59;;;;;;;2.42;0.50;;;15.60;99.90;;;;;;4935528;29;20548;-81
2022/10/02 06:44:46;;;;;;;3.17;0.75;;;15.60;99.90;;;;;;4931934;29;20055;-80
2022/10/02 06:47:39;;;;;;;1.95;1.25;;;15.70;99.90;;;;;;4933677;29;20059;-82
2022/10/02 06:50:42;;;;;;;3.90;0.80;;;15.70;99.90;;;;;;4910030;29;20426;-82
2022/10/02 06:53:30;;;;;;;2.45;0.60;;;15.70;99.90;;;;;;4926199;29;20110;-82
2022/10/02 06:56:24;;;;;;;4.05;0.77;;;15.70;99.90;;;;;;4941706;29;20050;-81
2022/10/02 06:59:03;;;;;;;2.35;0.77;;;15.70;99.90;;;;;;4922531;29;20055;-80
2022/10/02 07:01:58;;;;;;;1.77;0.70;;;15.70;99.90;;;;;;4939395;29;20154;-82
2022/10/02 07:04:31;;;;;;;0.82;0.57;;;15.70;99.90;;;;;;4939733;29;20127;-81
2022/10/02 07:06:57;;;;;;;1.38;0.65;;;15.70;99.90;;;;;;4939848;29;20052;-82
2022/10/02 07:09:57;;;;;;;2.00;0.70;;;15.70;99.90;;;;;;4937680;29;20056;-82
2022/10/02 07:12:27;;;;;;;2.50;0.90;;;15.70;99.90;;;;;;4918515;29;20064;-81
2022/10/02 07:15:18;;;;;;;2.90;0.50;;;15.80;99.90;;;;;;4921901;29;20039;-81
2022/10/02 07:18:21;;;;;;;0.88;0.43;;;15.80;99.90;;;;;;4939140;29;20058;-82
2022/10/02 07:21:12;;;;;;;2.80;0.60;;;15.90;99.90;;;;;;4938302;29;20054;-81
2022/10/02 07:24:12;;;;;;;1.25;0.47;;;16.00;99.90;;;;;;4940849;29;20059;-85
2022/10/02 07:26:52;;;;;;;1.85;0.60;;;16.10;99.90;;;;;;4918505;29;20051;-82
2022/10/02 07:29:29;;;;;;;2.95;0.60;;;16.30;99.90;;;;;;4922666;29;20044;-82
2022/10/02 07:32:35;;;;;;;2.80;1.00;;;16.40;99.90;;;;;;4930045;29;20055;-81
2022/10/02 07:35:07;;;;;;;2.38;0.68;;;16.40;99.90;;;;;;4941723;29;20051;-82
2022/10/02 07:37:47;;;;;;;2.58;0.50;;;16.50;99.90;;;;;;4939888;29;20062;-82
2022/10/02 07:40:37;;;;;;;1.60;0.52;;;16.50;99.90;;;;;;4941968;29;20528;-83
2022/10/02 07:43:49;;;;;;;0.93;0.40;;;16.50;99.90;;;;;;4942892;29;20479;-81
2022/10/02 07:46:37;;;;;;;0.93;0.40;;;16.50;99.90;;;;;;4926885;29;20052;-81
2022/10/02 07:49:37;;;;;;;1.15;0.38;;;16.60;99.90;;;;;;4922488;29;20055;-80
2022/10/02 07:52:31;;;;;;;0.43;0.30;;;16.60;99.90;;;;;;4941020;29;20062;-80
2022/10/02 07:55:24;;;;;;;0.32;0.30;;;16.60;99.90;;;;;;4942112;29;20048;-81
2022/10/02 07:58:38;;;;;;;0.30;0.30;;;16.60;99.90;;;;;;4941489;29;20520;-83
2022/10/02 08:01:12;;;;;;;0.30;0.30;;;16.60;99.90;;;;;;4923990;29;20052;-80
2022/10/02 08:03:43;;;;;;;0.30;0.30;;;16.70;99.90;;;;;;4942361;29;20052;-81
2022/10/02 08:06:10;;;;;;;0.40;0.40;;;16.70;99.90;;;;;;4941940;29;20059;-82
2022/10/02 08:08:55;;;;;;;0.60;0.40;;;16.70;99.90;;;;;;4941787;29;20059;-80
2022/10/02 08:11:37;;;;;;;0.40;0.32;;;16.70;99.90;;;;;;4943614;29;20457;-81
2022/10/02 08:14:18;;;;;;;0.30;0.30;;;16.80;99.90;;;;;;4941809;29;20051;-81
2022/10/02 08:16:48;;;;;;;0.90;0.40;;;16.80;99.90;;;;;;4938758;29;20056;-81
2022/10/02 08:19:24;;;;;;;0.40;0.30;;;16.90;99.90;;;;;;4941723;29;20095;-82
2022/10/02 08:22:01;;;;;;;1.45;0.40;;;17.00;99.90;;;;;;4919171;29;20058;-82
2022/10/02 08:25:08;;;;;;;1.05;0.40;;;17.00;99.90;;;;;;4940367;29;20552;-82
2022/10/02 08:28:06;;;;;;;0.50;0.50;;;17.10;99.90;;;;;;4941489;29;20044;-82
2022/10/02 08:30:33;;;;;;;6.38;0.60;;;17.10;99.90;;;;;;4940939;29;20075;-82
2022/10/02 08:33:00;;;;;;;2.88;0.30;;;17.10;99.90;;;;;;4942096;29;20051;-82
2022/10/02 08:36:00;;;;;;;0.70;0.40;;;17.10;99.90;;;;;;4929446;29;20051;-82
2022/10/02 08:38:45;;;;;;;0.75;0.35;;;17.00;99.90;;;;;;4941454;29;20095;-83
2022/10/02 08:41:23;;;;;;;1.02;0.40;;;17.00;99.90;;;;;;4936732;29;20056;-83
2022/10/02 08:44:19;;;;;;;2.45;0.70;;;17.00;99.90;;;;;;4940438;29;20070;-82
2022/10/02 08:47:01;;;;;;;1.40;0.60;;;17.00;99.90;;;;;;4941035;29;20056;-83
2022/10/02 08:49:55;;;;;;;0.52;0.40;;;17.00;99.90;;;;;;4941352;29;20047;-82
2022/10/02 08:52:28;;;;;;;0.70;0.63;;;17.00;99.90;;;;;;4940787;29;20059;-82
2022/10/02 08:55:16;;;;;;;0.30;0.30;;;16.90;99.90;;;;;;4941940;29;20047;-82
2022/10/02 08:58:26;;;;;;;1.10;0.55;;;17.00;99.90;;;;;;4924406;29;20048;-81
2022/10/02 09:01:05;;;;;;;1.60;0.83;;;17.00;99.90;;;;;;4946849;29;20056;-82
2022/10/02 09:03:53;;;;;;;0.70;0.40;;;17.10;99.90;;;;;;4931178;29;20051;-81
2022/10/02 09:06:23;;;;;;;0.35;0.30;;;17.10;99.90;;;;;;4941673;29;20063;-82
2022/10/02 09:09:11;;;;;;;2.40;0.35;;;17.10;99.90;;;;;;4944872;29;20154;-81
2022/10/02 09:11:44;;;;;;;1.73;0.60;;;17.10;99.90;;;;;;4940929;29;20052;-82
2022/10/02 09:14:25;;;;;;;0.30;0.25;;;17.10;99.90;;;;;;4941451;29;20086;-81
2022/10/02 09:17:10;;;;;;;0.63;0.40;;;17.20;99.90;;;;;;4941459;29;20062;-81
2022/10/02 09:20:24;;;;;;;1.30;0.40;;;17.20;99.90;;;;;;4924785;29;20059;-81
2022/10/02 09:23:05;;;;;;;1.17;0.40;;;17.20;99.90;;;;;;4942663;29;20059;-82
2022/10/02 09:25:57;;;;;;;0.60;0.43;;;17.20;99.90;;;;;;4939483;29;20101;-82
2022/10/02 09:28:54;;;;;;;1.55;0.70;;;17.10;99.90;;;;;;4932792;29;20516;-81
2022/10/02 09:31:39;;;;;;;1.48;0.32;;;17.10;99.90;;;;;;4922770;29;20052;-82
2022/10/02 09:34:25;;;;;;;0.85;0.30;;;17.10;99.90;;;;;;4940292;29;20055;-81
2022/10/02 09:37:17;;;;;;;0.45;0.40;;;17.00;99.90;;;;;;4938943;29;20052;-81
2022/10/02 09:40:08;;;;;;;0.45;0.30;;;17.00;99.90;;;;;;4921952;29;20047;-81
2022/10/02 09:43:05;;;;;;;4.15;0.60;;;17.00;99.90;;;;;;4940785;29;20051;-82
2022/10/02 09:46:10;;;;;;;0.60;0.30;;;17.00;99.90;;;;;;4939882;29;20502;-81
2022/10/02 09:48:44;;;;;;;0.30;0.30;;;17.00;99.90;;;;;;4910559;29;20059;-82
2022/10/02 09:51:41;;;;;;;0.70;0.50;;;17.00;99.90;;;;;;4940684;29;20072;-82
2022/10/02 09:54:53;;;;;;;0.60;0.50;;;17.00;99.90;;;;;;4939897;29;20051;-82
2022/10/02 09:57:57;;;;;;;0.70;0.60;;;17.00;99.90;;;;;;4933998;29;20086;-83
2022/10/02 10:00:48;;;;;;;0.60;0.47;;;17.10;99.90;;;;;;4940292;29;20462;-82
2022/10/02 10:03:21;;;;;;;0.60;0.30;;;17.10;99.90;;;;;;4922200;29;20211;-82
2022/10/02 10:05:52;;;;;;;0.85;0.35;;;17.20;99.90;;;;;;4923130;29;20051;-82
2022/10/02 10:08:43;;;;;;;1.02;0.40;;;17.10;99.90;;;;;;4940120;29;20565;-81
2022/10/02 10:11:31;;;;;;;0.82;0.50;;;17.20;99.90;;;;;;4937521;29;20440;-81
2022/10/02 10:14:37;;;;;;;0.43;0.40;;;17.20;99.90;;;;;;4939810;29;20050;-82
2022/10/02 10:17:31;;;;;;;2.28;0.50;;;17.20;99.90;;;;;;4939608;29;20063;-81
2022/10/02 10:20:22;;;;;;;0.30;0.30;;;17.20;99.90;;;;;;4939232;29;20047;-80
2022/10/02 10:23:22;;;;;;;0.95;0.30;;;17.30;99.90;;;;;;4939818;29;20055;-82
2022/10/02 10:26:04;;;;;;;0.40;0.25;;;17.40;99.90;;;;;;4935948;29;20056;-83
2022/10/02 10:28:49;;;;;;;4.95;0.50;;;17.50;99.90;;;;;;4918189;29;20052;-82
2022/10/02 10:31:48;;;;;;;0.30;0.20;;;17.60;99.90;;;;;;4937368;29;20059;-82
2022/10/02 10:34:53;;;;;;;0.40;0.40;;;17.70;99.90;;;;;;4890342;29;20056;-81
2022/10/02 10:40:41;;;;;;;0.28;0.28;;;18.00;99.90;;;;;;4940925;29;20063;-81
2022/10/02 10:43:32;;;;;;;0.30;0.30;;;18.10;99.90;;;;;;4921213;29;20130;-83
2022/10/02 10:46:14;;;;;;;2.35;0.38;;;18.40;99.90;;;;;;4923381;29;20062;-82
2022/10/02 10:49:02;;;;;;;3.10;0.50;;;18.50;99.90;;;;;;4942272;29;20476;-82
2022/10/02 10:51:45;;;;;;;4.10;0.60;;;18.60;99.90;;;;;;4947053;29;20525;-82
2022/10/02 10:54:23;;;;;;;3.35;0.50;;;18.70;99.90;;;;;;4925058;29;20400;-82
2022/10/02 10:57:11;;;;;;;0.50;0.47;;;18.70;99.90;;;;;;4942924;29;20062;-82
2022/10/02 11:00:02;;;;;;;0.75;0.43;;;18.80;99.90;;;;;;4940923;29;20460;-82
2022/10/02 11:02:35;;;;;;;2.58;0.50;;;18.80;99.90;;;;;;4939259;29;20051;-81
2022/10/02 11:05:31;;;;;;;0.40;0.40;;;18.90;99.90;;;;;;4939190;29;20047;-82
2022/10/02 11:08:17;;;;;;;1.52;0.55;;;18.90;99.90;;;;;;4938286;29;20039;-80
2022/10/02 11:11:26;;;;;;;0.45;0.45;;;19.00;99.90;;;;;;4919945;29;20561;-82
2022/10/02 11:13:56;;;;;;;1.10;0.40;;;19.00;99.90;;;;;;4943136;29;20196;-81
2022/10/02 11:16:53;;;;;;;0.93;0.32;;;18.90;99.90;;;;;;4926511;29;20052;-82
2022/10/02 11:19:48;;;;;;;0.40;0.40;;;18.80;99.90;;;;;;4942036;29;20086;-82
2022/10/02 11:22:57;;;;;;;0.55;0.30;;;18.70;99.90;;;;;;4944201;29;20111;-82
2022/10/02 11:25:44;;;;;;;1.05;0.30;;;18.60;99.90;;;;;;4937767;29;20047;-83
2022/10/02 11:28:20;;;;;;;0.60;0.40;;;18.60;99.90;;;;;;4940353;29;20055;-83
2022/10/02 11:31:01;;;;;;;3.83;0.80;;;18.50;99.90;;;;;;4926279;29;20083;-82
2022/10/02 11:33:47;;;;;;;0.50;0.47;;;18.60;99.90;;;;;;4926747;29;20055;-82
2022/10/02 11:36:41;;;;;;;1.50;0.40;;;18.60;99.90;;;;;;4943214;29;20052;-82
2022/10/02 11:39:20;;;;;;;1.20;0.55;;;18.70;99.90;;;;;;4943623;29;20083;-82
2022/10/02 11:41:59;;;;;;;0.82;0.30;;;18.70;99.90;;;;;;4942430;29;20147;-82
2022/10/02 11:44:53;;;;;;;3.15;0.50;;;18.70;99.90;;;;;;4922071;29;20081;-83
2022/10/02 11:48:07;;;;;;;0.52;0.40;;;18.70;99.90;;;;;;4922006;29;20048;-82
2022/10/02 11:50:43;;;;;;;1.60;0.70;;;18.70;99.90;;;;;;4943197;29;20123;-83
2022/10/02 11:53:30;;;;;;;2.38;0.73;;;18.70;99.90;;;;;;4941421;29;20044;-82
2022/10/02 11:56:21;;;;;;;0.45;0.40;;;18.80;99.90;;;;;;4942469;29;20090;-78
2022/10/02 11:59:17;;;;;;;1.55;0.30;;;18.80;99.90;;;;;;4938047;29;20056;-82
2022/10/02 12:01:55;;;;;;;0.35;0.30;;;18.80;99.90;;;;;;4926685;29;20062;-83
2022/10/02 12:04:30;;;;;;;0.68;0.30;;;18.80;99.90;;;;;;4926461;29;20051;-83
2022/10/02 12:07:06;;;;;;;1.00;0.50;;;18.90;99.90;;;;;;4943220;29;20052;-83
2022/10/02 12:10:00;;;;;;;0.98;0.40;;;19.00;99.90;;;;;;4922886;29;20058;-82
2022/10/02 12:12:50;;;;;;;0.85;0.55;;;19.10;99.90;;;;;;4926088;29;20505;-83
2022/10/02 12:15:37;;;;;;;0.65;0.40;;;19.20;99.90;;;;;;4942833;29;20071;-82
2022/10/02 12:18:17;;;;;;;0.60;0.38;;;19.30;99.90;;;;;;4925838;29;20122;-83
2022/10/02 12:27:21;;;;;;;2.15;0.47;;;19.60;99.90;;;;;;4949065;29;20059;-83
2022/10/02 12:30:17;;;;;;;0.50;0.30;;;19.80;99.90;;;;;;4924695;29;20413;-83
2022/10/02 12:32:44;;;;;;;2.80;0.40;;;19.90;99.90;;;;;;4940941;29;20051;-83
2022/10/02 12:35:44;;;;;;;0.35;0.30;;;20.10;99.90;;;;;;4914325;29;20052;-83
2022/10/02 12:38:36;;;;;;;0.77;0.35;;;20.20;99.90;;;;;;4942485;29;20056;-83
2022/10/02 12:41:57;;;;;;;2.67;0.45;;;20.20;99.90;;;;;;4942336;29;20513;-82
2022/10/02 12:44:39;;;;;;;1.00;0.20;;;20.30;99.90;;;;;;4892093;29;20059;-82
2022/10/02 12:47:28;;;;;;;3.63;0.40;;;20.20;99.90;;;;;;4937497;29;20509;-83
2022/10/02 12:50:15;;;;;;;0.70;0.50;;;20.20;99.90;;;;;;4916626;29;20062;-83
2022/10/02 12:53:10;;;;;;;1.10;0.25;;;20.10;99.90;;;;;;4942307;29;20044;-83
2022/10/02 12:56:00;;;;;;;3.88;0.40;;;20.00;99.90;;;;;;4941568;29;20422;-84
2022/10/02 12:59:02;;;;;;;0.77;0.40;;;19.90;99.90;;;;;;4925231;29;20059;-84
2022/10/02 13:02:05;;;;;;;1.00;0.30;;;19.80;99.90;;;;;;4938705;29;20067;-79
2022/10/02 13:04:56;;;;;;;1.08;0.40;;;19.80;99.90;;;;;;4927302;29;20084;-82
2022/10/02 13:08:04;;;;;;;2.28;0.35;;;19.80;99.90;;;;;;4940206;29;20149;-83
2022/10/02 13:10:54;;;;;;;1.58;0.50;;;19.80;99.90;;;;;;4916514;29;20571;-82
2022/10/02 13:13:40;;;;;;;;;;;19.70;99.90;;;;;;4924952;29;20048;-83
2022/10/02 13:16:45;;;;;;;1.02;0.40;;;19.70;99.90;;;;;;4947624;29;19927;-81
2022/10/02 13:19:29;;;;;;;7.05;0.60;;;19.60;99.90;;;;;;4942404;29;20055;-83
2022/10/02 13:22:11;;;;;;;1.20;0.50;;;19.60;99.90;;;;;;4942166;29;20064;-83
2022/10/02 13:24:53;;;;;;;2.20;0.40;;;19.60;99.90;;;;;;4923844;29;20048;-83
2022/10/02 13:27:48;;;;;;;0.30;0.28;;;19.60;99.90;;;;;;4941000;29;20048;-84
2022/10/02 13:30:15;;;;;;;1.05;0.45;;;19.50;99.90;;;;;;4941323;29;20083;-84
2022/10/02 13:32:51;;;;;;;2.25;0.73;;;19.50;99.90;;;;;;4941646;29;20103;-82
2022/10/02 13:35:36;;;;;;;1.17;0.30;;;19.50;99.90;;;;;;4941102;28;20135;-83
2022/10/02 13:38:30;;;;;;;1.70;0.47;;;19.50;99.90;;;;;;4940932;29;20047;-83
2022/10/02 13:41:06;;;;;;;3.05;0.47;;;19.50;99.90;;;;;;4938845;29;20450;-83
2022/10/02 13:43:57;;;;;;;1.40;0.50;;;19.50;99.90;;;;;;4937806;29;20048;-83
2022/10/02 13:46:30;;;;;;;4.57;0.50;;;19.60;99.90;;;;;;4941544;29;20560;-82
2022/10/02 13:49:12;;;;;;;4.30;0.50;;;19.60;99.90;;;;;;4934799;29;20063;-82
2022/10/02 13:52:00;;;;;;;4.93;0.47;;;19.60;99.90;;;;;;4940769;29;20059;-83
2022/10/02 13:54:38;;;;;;;2.28;0.40;;;19.60;99.90;;;;;;4930368;29;20098;-81
2022/10/02 13:57:20;;;;;;;1.77;0.50;;;19.60;99.90;;;;;;4938045;29;20048;-83
2022/10/02 14:00:10;;;;;;;2.88;0.57;;;19.50;99.90;;;;;;4924168;29;20071;-83
2022/10/02 14:02:44;;;;;;;;;;;19.60;99.90;;;;;;4945270;29;20058;-82
2022/10/02 14:05:19;;;;;;;4.97;0.43;;;19.60;99.90;;;;;;4943086;29;19933;-81
2022/10/02 14:08:07;;;;;;;4.65;0.60;;;19.60;99.90;;;;;;4939846;29;20066;-82
2022/10/02 14:10:58;;;;;;;6.03;0.93;;;19.60;99.90;;;;;;4938578;29;20131;-82
2022/10/02 14:13:55;;;;;;;3.28;1.20;;;19.50;99.90;;;;;;4920379;29;20048;-82
2022/10/02 14:16:43;;;;;;;1.20;0.50;;;19.50;99.90;;;;;;4940204;29;20580;-82
2022/10/02 14:19:34;;;;;;;4.32;0.80;;;19.50;99.90;;;;;;4940573;29;20064;-82
2022/10/02 14:22:10;;;;;;;5.70;0.77;;;19.40;99.90;;;;;;4938644;29;20066;-81
2022/10/02 14:25:02;;;;;;;2.28;0.80;;;19.30;99.90;;;;;;4940563;29;20071;-81